Aviation Digital Data Service (ADDS)

Output produced by METARs form (1126 UTC 19 February 2019)
found at http://www.aviationweather.gov/metar/data/
 
Forecast for: OIIE (IMAM KHOMEINI , IR)
Text: TAF OIIE 190530Z 1906/2012 32018KT 8000 FEW045
Forecast period: 0600 UTC 19 February 2019 to 1200 UTC 20 February 2019
Forecast type: FROM: standard forecast or significant change
Winds: from the NW (320 degrees) at 21 MPH (18 knots; 9.3 m/s)
Visibility: 5 miles (8 km)
Ceiling: at least 12,000 feet AGL
Clouds: few clouds at 4500 feet AGL
Weather: no significant weather forecast for this period
Text: TEMPO 1912/1918 FEW035CB SCT040 SCT090
Forecast period: 1200 to 1800 UTC 19 February 2019
Forecast type: TEMPORARY: The following changes expected for less than half the time period
Visibility: missing
Ceiling: at least 12,000 feet AGL
Clouds: few clouds at 3500 feet AGL
scattered clouds at 4000 feet AGL
scattered clouds at 9000 feet AGL
Weather: no significant weather forecast for this period
Text: TEMPO 1918/1924 32022G32KT
Forecast period: 1800 UTC 19 February 2019 to 0000 UTC 20 February 2019
Forecast type: TEMPORARY: The following changes expected for less than half the time period
Winds: from the NW (320 degrees) at 25 MPH (22 knots; 11.3 m/s)
gusting to 37 MPH (32 knots; 16.5 m/s)
Visibility: missing
Ceiling: unknown
Clouds: missing
Weather: no significant weather forecast for this period